createdAt,value
2023-02-28T00:03:42.707Z,81.77
2023-02-28T00:08:42.608Z,81.84
2023-02-28T00:13:43.601Z,81.84
2023-02-28T00:18:42.463Z,81.63
2023-02-28T00:23:42.457Z,81.98
2023-02-28T00:28:42.350Z,81.35
2023-02-28T00:33:42.290Z,81.77
2023-02-28T00:38:42.265Z,82.54
2023-02-28T00:43:42.214Z,81.92
2023-02-28T00:48:42.260Z,82.16
2023-02-28T00:53:43.223Z,82.47
2023-02-28T00:58:42.237Z,83.21
2023-02-28T01:03:42.011Z,82.47
2023-02-28T01:08:41.972Z,82.40
2023-02-28T01:13:41.871Z,82.62
2023-02-28T01:18:41.860Z,82.45
2023-02-28T01:23:41.800Z,82.55
2023-02-28T01:28:41.710Z,83.11
2023-02-28T01:33:41.704Z,83.42
2023-02-28T01:38:41.668Z,84.05
2023-02-28T01:43:41.705Z,83.84
2023-02-28T01:48:41.531Z,84.85
2023-02-28T01:53:41.448Z,83.95
2023-02-28T01:58:41.466Z,83.64
2023-02-28T02:03:41.554Z,0.00
2023-02-28T02:08:42.534Z,0.00
2023-02-28T02:13:41.253Z,84.30
2023-02-28T02:18:41.229Z,84.68
2023-02-28T02:23:41.153Z,84.20
2023-02-28T02:28:41.229Z,85.52
2023-02-28T02:33:41.121Z,84.72
2023-02-28T02:38:42.034Z,83.71
2023-02-28T02:43:41.000Z,83.75
2023-02-28T02:48:40.890Z,84.38
2023-02-28T02:53:40.866Z,84.91
2023-02-28T02:58:49.689Z,84.48
2023-02-28T03:03:40.750Z,85.53
2023-02-28T03:08:40.673Z,85.81
2023-02-28T03:13:40.800Z,85.01
2023-02-28T03:18:40.769Z,85.22
2023-02-28T03:23:40.587Z,85.15
2023-02-28T03:28:40.574Z,84.94
2023-02-28T03:33:40.547Z,85.47
2023-02-28T03:38:40.599Z,85.61
2023-02-28T03:43:40.538Z,85.93
2023-02-28T03:48:40.314Z,86.55
2023-02-28T03:53:40.257Z,86.20
2023-02-28T03:58:40.158Z,85.82
2023-02-28T04:03:40.149Z,85.72
2023-02-28T04:08:40.150Z,85.61
2023-02-28T04:13:40.080Z,86.07
2023-02-28T04:18:40.000Z,85.96
2023-02-28T04:23:39.922Z,85.86
2023-02-28T04:28:39.876Z,86.11
2023-02-28T04:33:39.820Z,86.91
2023-02-28T04:38:39.744Z,87.44
2023-02-28T04:43:39.730Z,87.08
2023-02-28T04:48:39.661Z,86.38
2023-02-28T04:53:39.588Z,86.28
2023-02-28T04:58:39.565Z,86.11
2023-02-28T05:03:39.496Z,86.32
2023-02-28T05:08:39.413Z,87.75
2023-02-28T05:13:39.439Z,87.40
2023-02-28T05:18:39.375Z,86.80
2023-02-28T05:23:39.263Z,86.70
2023-02-28T05:28:39.269Z,85.90
2023-02-28T05:33:39.204Z,86.21
2023-02-28T05:38:39.145Z,87.16
2023-02-28T05:43:39.213Z,86.53
2023-02-28T05:48:39.030Z,86.63
2023-02-28T05:53:38.972Z,86.53
2023-02-28T05:58:38.916Z,86.85
2023-02-28T06:03:38.863Z,86.43
2023-02-28T06:08:38.797Z,86.95
2023-02-28T06:13:38.804Z,87.23
2023-02-28T06:18:38.731Z,86.53
2023-02-28T06:23:38.650Z,86.43
2023-02-28T06:28:38.603Z,86.63
2023-02-28T06:33:38.798Z,86.32
2023-02-28T06:38:38.484Z,85.94
2023-02-28T06:43:38.445Z,86.57
2023-02-28T06:48:38.483Z,86.25
2023-02-28T06:53:38.453Z,86.25
2023-02-28T06:58:38.284Z,86.63
2023-02-28T07:03:38.290Z,86.32
2023-02-28T07:08:41.708Z,86.32
2023-02-28T07:13:38.175Z,86.38
2023-02-28T07:18:38.373Z,86.18
2023-02-28T07:23:38.325Z,85.79
2023-02-28T07:28:38.998Z,85.79
2023-02-28T07:33:37.944Z,85.55
2023-02-28T07:38:37.970Z,86.13
2023-02-28T07:43:37.929Z,85.89
2023-02-28T07:48:37.792Z,85.74
2023-02-28T07:53:37.716Z,85.53
2023-02-28T07:58:37.658Z,85.49
2023-02-28T08:03:37.714Z,85.42
2023-02-28T08:08:37.649Z,85.24
2023-02-28T08:13:37.554Z,83.73
2023-02-28T08:18:37.545Z,82.86
2023-02-28T08:23:37.416Z,81.95
2023-02-28T08:28:37.348Z,80.16
2023-02-28T08:33:37.285Z,79.85
2023-02-28T08:38:37.250Z,78.52
2023-02-28T08:43:37.302Z,77.34
2023-02-28T08:48:37.230Z,75.53
2023-02-28T08:53:37.099Z,74.98
2023-02-28T08:58:37.010Z,74.21
2023-02-28T09:03:36.969Z,71.58
2023-02-28T09:08:37.005Z,69.96
2023-02-28T09:13:36.894Z,67.22
2023-02-28T09:18:36.864Z,66.21
2023-02-28T09:23:36.770Z,66.71
2023-02-28T09:28:36.705Z,65.50
2023-02-28T09:33:36.683Z,62.18
2023-02-28T09:38:36.628Z,60.08
2023-02-28T09:43:36.599Z,59.48
2023-02-28T09:48:36.516Z,59.17
2023-02-28T09:53:36.462Z,57.38
2023-02-28T09:58:36.442Z,57.17
2023-02-28T10:03:36.286Z,56.76
2023-02-28T10:08:36.227Z,55.74
2023-02-28T10:13:36.177Z,55.64
2023-02-28T10:18:36.224Z,56.03
2023-02-28T10:24:46.434Z,56.08
2023-02-28T10:29:46.426Z,55.43
2023-02-28T10:34:46.425Z,53.77
2023-02-28T10:39:46.382Z,51.13
2023-02-28T10:44:46.235Z,49.57
2023-02-28T10:49:46.167Z,50.40
2023-02-28T10:54:46.076Z,53.00
2023-02-28T10:59:46.156Z,48.20
2023-02-28T11:04:46.842Z,48.64
2023-02-28T11:09:46.002Z,47.78
2023-02-28T11:14:45.899Z,47.66
2023-02-28T11:19:45.820Z,47.52
2023-02-28T11:24:45.764Z,48.83
2023-02-28T11:29:45.713Z,47.92
2023-02-28T11:34:45.650Z,47.28
2023-02-28T11:39:45.573Z,46.21
2023-02-28T11:44:45.495Z,46.93
2023-02-28T11:49:45.582Z,46.23
2023-02-28T11:54:45.430Z,48.19
2023-02-28T11:59:45.380Z,50.01
2023-02-28T12:04:45.431Z,46.06
2023-02-28T12:09:45.359Z,46.77
2023-02-28T12:14:46.285Z,46.89
2023-02-28T12:19:45.789Z,47.27
2023-02-28T12:24:45.077Z,47.36
2023-02-28T12:29:45.086Z,48.79
2023-02-28T12:34:45.013Z,47.14
2023-02-28T12:39:50.531Z,49.80
2023-02-28T12:44:45.875Z,48.33
2023-02-28T12:49:44.818Z,46.81
2023-02-28T12:54:44.811Z,48.30
2023-02-28T12:59:44.711Z,48.50
2023-02-28T13:04:44.704Z,48.77
2023-02-28T13:09:44.648Z,47.51
2023-02-28T13:14:45.269Z,48.27
2023-02-28T13:19:44.524Z,49.00
2023-02-28T13:24:44.429Z,47.97
2023-02-28T13:29:44.416Z,49.91
2023-02-28T13:34:44.301Z,47.88
2023-02-28T13:39:44.364Z,47.99
2023-02-28T13:44:44.769Z,49.85
2023-02-28T13:49:44.234Z,49.38
2023-02-28T13:54:44.230Z,50.05
2023-02-28T13:59:44.047Z,50.18
2023-02-28T14:04:44.024Z,51.61
2023-02-28T14:09:44.210Z,51.01
2023-02-28T14:14:43.899Z,51.01
2023-02-28T14:19:43.873Z,50.60
2023-02-28T14:24:43.999Z,49.95
2023-02-28T14:29:43.827Z,50.60
2023-02-28T14:34:43.728Z,50.29
2023-02-28T14:39:43.707Z,50.60
2023-02-28T14:44:43.548Z,50.60
2023-02-28T14:49:43.508Z,51.32
2023-02-28T14:54:43.435Z,51.63
2023-02-28T14:59:44.443Z,50.93
2023-02-28T15:04:43.653Z,52.25
2023-02-28T15:09:43.322Z,52.15
2023-02-28T15:14:43.294Z,52.56
2023-02-28T15:19:43.232Z,52.98
2023-02-28T15:24:43.173Z,53.57
2023-02-28T15:29:43.074Z,53.20
2023-02-28T15:34:44.435Z,54.01
2023-02-28T15:39:43.001Z,53.59
2023-02-28T15:44:43.051Z,53.39
2023-02-28T15:49:45.316Z,53.93
2023-02-28T15:54:42.825Z,54.16
2023-02-28T15:59:42.720Z,54.16
2023-02-28T16:04:42.687Z,53.75
2023-02-28T16:09:42.695Z,53.23
2023-02-28T16:14:42.567Z,54.97
2023-02-28T16:19:44.761Z,53.75
2023-02-28T16:24:51.629Z,53.62
2023-02-28T16:29:42.388Z,53.54
2023-02-28T16:34:42.320Z,54.03
2023-02-28T16:39:42.534Z,54.45
2023-02-28T16:44:42.245Z,54.79
2023-02-28T16:49:42.490Z,55.74
2023-02-28T16:54:42.276Z,56.05
2023-02-28T16:59:42.034Z,56.70
2023-02-28T17:04:42.199Z,56.91
2023-02-28T17:09:45.466Z,56.60
2023-02-28T17:14:42.163Z,56.91
2023-02-28T17:19:41.850Z,57.22
2023-02-28T17:24:41.963Z,57.87
2023-02-28T17:29:42.586Z,57.56
2023-02-28T17:36:50.390Z,57.66
2023-02-28T17:41:52.899Z,59.04
2023-02-28T17:47:02.268Z,59.25
2023-02-28T17:55:45.716Z,59.27
2023-02-28T18:00:45.326Z,59.48
2023-02-28T18:05:45.420Z,59.89
2023-02-28T18:10:45.494Z,60.31
2023-02-28T18:15:45.442Z,59.69
2023-02-28T18:20:45.322Z,59.71
2023-02-28T18:25:45.218Z,59.48
2023-02-28T18:30:45.247Z,59.82
2023-02-28T18:35:47.348Z,60.44
2023-02-28T18:40:45.007Z,61.30
2023-02-28T18:45:44.980Z,62.78
2023-02-28T18:50:44.816Z,63.54
2023-02-28T18:55:44.734Z,63.75
2023-02-28T19:00:44.704Z,63.67
2023-02-28T19:05:45.765Z,68.70
2023-02-28T19:10:44.778Z,66.86
2023-02-28T19:15:44.539Z,66.89
2023-02-28T19:20:44.505Z,67.85
2023-02-28T19:25:44.470Z,68.79
2023-02-28T19:30:44.528Z,68.72
2023-02-28T19:35:44.638Z,69.59
2023-02-28T19:40:44.422Z,75.29
2023-02-28T19:45:44.385Z,73.13
2023-02-28T19:50:44.226Z,72.19
2023-02-28T19:55:44.249Z,72.13
2023-02-28T20:00:46.338Z,71.64
2023-02-28T20:05:44.194Z,72.26
2023-02-28T20:10:44.152Z,73.02
2023-02-28T20:15:43.977Z,73.96
2023-02-28T20:20:43.846Z,73.90
2023-02-28T20:25:43.826Z,74.42
2023-02-28T20:30:43.805Z,75.46
2023-02-28T20:36:10.046Z,75.04
2023-02-28T20:40:43.641Z,75.49
2023-02-28T20:45:43.750Z,76.12
2023-02-28T20:50:43.539Z,76.79
2023-02-28T20:55:43.471Z,77.90
2023-02-28T21:00:44.488Z,76.96
2023-02-28T21:05:43.498Z,77.31
2023-02-28T21:10:43.464Z,78.15
2023-02-28T21:15:43.285Z,77.62
2023-02-28T21:20:43.199Z,77.94
2023-02-28T21:25:43.138Z,78.91
2023-02-28T21:30:43.078Z,78.91
2023-02-28T21:35:43.103Z,78.43
2023-02-28T21:40:43.109Z,80.27
2023-02-28T21:45:45.015Z,79.75
2023-02-28T21:50:42.927Z,79.75
2023-02-28T21:55:42.929Z,79.27
2023-02-28T22:00:42.775Z,80.00
2023-02-28T22:05:42.724Z,80.94
2023-02-28T22:10:42.646Z,80.31
2023-02-28T22:15:42.634Z,80.31
2023-02-28T22:20:42.568Z,80.66
2023-02-28T22:25:42.484Z,80.98
2023-02-28T22:30:51.313Z,79.90
2023-02-28T22:35:43.242Z,80.35
2023-02-28T22:40:42.504Z,81.01
2023-02-28T22:45:42.402Z,81.29
2023-02-28T22:50:42.280Z,81.01
2023-02-28T22:55:42.173Z,81.01
2023-02-28T23:00:42.301Z,81.33
2023-02-28T23:05:42.180Z,81.26
2023-02-28T23:10:42.132Z,81.37
2023-02-28T23:15:41.963Z,81.61
2023-02-28T23:20:41.916Z,81.61
2023-02-28T23:25:41.915Z,81.96
2023-02-28T23:30:41.867Z,82.87
2023-02-28T23:35:41.782Z,82.39
2023-02-28T23:40:41.659Z,83.71
2023-02-28T23:45:41.841Z,83.29
2023-02-28T23:50:41.583Z,83.01
2023-02-28T23:55:41.625Z,82.70
